Terminal Aerodrome Forecast
Issued by NWS Greer, SC

Home | Current Version | Previous Version | Text Only | Print | Product List | Glossary On
Versions: 1 2 3 4 5 6 7 8 9 10 11 12 13 14 15 16 17 18 19 20
000
FTUS42 KGSP 290705 AAB
TAFAVL
TAF AMD
KAVL 290705Z 2907/3006 33007KT P6SM FEW010 SCT045
      TEMPO 2908/2912 5SM BR BKN010
     FM291200 33006KT P6SM BKN020
     FM291400 33007KT P6SM BKN050 PROB30 2918/2924 4SM -TSRA
      OVC025CB
     FM300000 31003KT P6SM VCTS BKN050CB=

USA.gov is the U.S. government's official web portal to all federal, state and local government web resources and services.